David J. Cooper — WDF9940 — position and weather

sailwx.info

Track history (hours):
 
Tides and Currents Weather Stations Pressure Air Temp Water Temp Dewpoint Dewpoint Depression Visibility Wind Speed Wind Dir Waves Ship Positions

David J. Cooper

Owner: CRESCENT TOWING & SALVAGE CO INC ATTN Jeff Guilott, Elmwood, LA. More information available from US FCC via Universal Licensing System and Coast Guard Vessel Documentation Center.

Last reported at 2015-Apr-16 07:29 UTC. Time now 2015-Apr-21 01:25 UTC.
Position N 29°57' W 090°01'.

Length 29 m; draft 7 m.

Type: Tug. MMSI: 367510430.

Date/timePositionNaut miles runAvg speedWind from/ knotsBaromVisibWave heightAir tempDewpointWater temp
2015-Apr-16 07:29N 29°57' W 090°01'1 0.5
2015-Apr-16 05:33N 29°57' W 090°02'1 0.7
2015-Apr-16 03:29N 29°57' W 090°01'  
2015-Apr-13 19:30N 29°55' W 090°06'2 1.9
2015-Apr-13 18:30N 29°55' W 090°04'2 2.0
2015-Apr-13 17:20N 29°57' W 090°03'0 0.0
2015-Apr-13 15:05N 29°57' W 090°03'4 6.5
2015-Apr-13 14:31N 29°55' W 090°06'1 1.0
2015-Apr-13 13:32N 29°55' W 090°05'3 2.7
2015-Apr-13 12:30N 29°57' W 090°03'0 0.0
2015-Apr-13 11:33N 29°57' W 090°03'0 0.0
2015-Apr-13 10:24N 29°57' W 090°03'0 0.0
2015-Apr-13 09:33N 29°57' W 090°03'0 0.0
2015-Apr-13 08:28N 29°57' W 090°03'0 0.0
2015-Apr-13 07:24N 29°57' W 090°03'7 0.3
2015-Apr-12 08:18N 29°52' W 089°57'6 7.3
2015-Apr-12 07:31N 29°57' W 090°01'  
Track history (hours):
 
Tides and Currents Weather Stations Pressure Air Temp Water Temp Dewpoint Dewpoint Depression Visibility Wind Speed Wind Dir Waves Ship Positions

David J. Cooper

Owner: CRESCENT TOWING & SALVAGE CO INC ATTN Jeff Guilott, Elmwood, LA. More information available from US FCC via Universal Licensing System and Coast Guard Vessel Documentation Center.

Last reported at 2015-Apr-16 07:29 UTC. Time now 2015-Apr-21 01:25 UTC.
Position N 29°57' W 090°01'.

Length 29 m; draft 7 m.

Type: Tug. MMSI: 367510430.

Date/timePositionNaut miles runAvg speedWind from/ knotsBaromVisibWave heightAir tempDewpointWater temp
2015-Apr-16 07:29N 29°57' W 090°01'1 0.5
2015-Apr-16 05:33N 29°57' W 090°02'1 0.7
2015-Apr-16 03:29N 29°57' W 090°01'  
2015-Apr-13 19:30N 29°55' W 090°06'2 1.9
2015-Apr-13 18:30N 29°55' W 090°04'2 2.0
2015-Apr-13 17:20N 29°57' W 090°03'0 0.0
2015-Apr-13 15:05N 29°57' W 090°03'4 6.5
2015-Apr-13 14:31N 29°55' W 090°06'1 1.0
2015-Apr-13 13:32N 29°55' W 090°05'3 2.7
2015-Apr-13 12:30N 29°57' W 090°03'0 0.0
2015-Apr-13 11:33N 29°57' W 090°03'0 0.0
2015-Apr-13 10:24N 29°57' W 090°03'0 0.0
2015-Apr-13 09:33N 29°57' W 090°03'0 0.0
2015-Apr-13 08:28N 29°57' W 090°03'0 0.0
2015-Apr-13 07:24N 29°57' W 090°03'7 0.3
2015-Apr-12 08:18N 29°52' W 089°57'6 7.3
2015-Apr-12 07:31N 29°57' W 090°01'  

Dump ship's entire track history